Terminal Aerodrome Forecast
Issued by NWS Dodge City, KS

Home | Current Version | Previous Version | Graphics & Text | Print | Product List | Glossary Off
Versions: 1 2 3 4 5 6 7 8 9 10 11 12 13 14 15 16 17 18 19 20 21 22 23 24 25 26 27 28 29 30 31 32 33 34 35 36 37 38 39 40 41 42 43 44 45 46 47 48 49 50

000
FTUS43 KDDC 301208 AAA
TAFDDC
TAF AMD
KDDC 301208Z 3012/3112 00000KT 1/2SM FG BKN001
      TEMPO 3012/3014 1/4SM FG OVC001
     FM301400 VRB03KT P6SM VCTS BKN090CB
     FM301630 VRB03KT P6SM -SHRA OVC070
      TEMPO 3020/3024 4SM TSRA OVC025CB
     FM310100 VRB05KT P6SM BKN060=

USA.gov is the U.S. government's official web portal to all federal, state and local government web resources and services.